Time;durP1;ratioP1;P1;durP2;ratioP2;P2;SDS_P1;SDS_P2;PMS_P1;PMS_P2;Temp;Humidity;BMP_temperature;BMP_pressure;BME280_temperature;BME280_humidity;BME280_pressure;Samples;Min_cycle;Max_cycle;Signal;HPM_P1;HPM_P2
2021/06/01 00:01:30;;;;;;;7.08;4.58;;;;;;;7.02;93.08;93124.69;1771880;81;21629;-82
2021/06/01 00:03:57;;;;;;;16.35;5.42;;;;;;;6.95;93.28;93121.37;1771956;81;21024;-80
2021/06/01 00:06:24;;;;;;;7.50;5.75;;;;;;;6.91;93.48;93124.63;1771121;80;21024;-81
2021/06/01 00:08:51;;;;;;;7.08;5.05;;;;;;;6.89;93.70;93125.59;1770695;81;21657;-81
2021/06/01 00:11:17;;;;;;;5.28;4.75;;;;;;;6.86;93.86;93122.30;1769776;81;21072;-78
2021/06/01 00:13:44;;;;;;;7.75;4.42;;;;;;;6.87;94.09;93119.02;1770284;81;21653;-78
2021/06/01 00:16:11;;;;;;;6.08;4.00;;;;;;;6.88;94.14;93114.56;1771013;81;21155;-78
2021/06/01 00:18:39;;;;;;;9.08;5.05;;;;;;;6.87;94.10;93123.06;1771160;80;21083;-78
2021/06/01 00:21:06;;;;;;;6.95;4.35;;;;;;;6.89;94.15;93124.83;1770347;81;21640;-77
2021/06/01 00:23:39;;;;;;;8.25;4.42;;;;;;;6.91;94.21;93115.17;1765164;81;21067;-78
2021/06/01 00:26:07;;;;;;;9.55;4.53;;;;;;;6.94;94.03;93118.47;1757089;80;21065;-77
2021/06/01 00:28:34;;;;;;;6.15;4.33;;;;;;;6.95;94.01;93115.95;1757411;78;21007;-78
2021/06/01 00:31:01;;;;;;;4.60;4.12;;;;;;;6.97;93.73;93115.02;1822995;78;21019;-79
2021/06/01 00:33:28;;;;;;;5.12;4.12;;;;;;;6.96;93.67;93116.17;1767087;78;21123;-77
2021/06/01 00:35:54;;;;;;;6.05;4.10;;;;;;;6.97;93.64;93117.72;1772387;80;20996;-77
2021/06/01 00:38:21;;;;;;;4.47;4.00;;;;;;;6.95;93.67;93114.61;1775877;80;21132;-79
2021/06/01 00:40:48;;;;;;;5.92;4.08;;;;;;;6.92;93.75;93111.34;1750772;80;21063;-77
2021/06/01 00:43:14;;;;;;;4.15;3.70;;;;;;;6.93;93.63;93113.45;1757501;80;21088;-78
2021/06/01 00:45:41;;;;;;;5.15;3.60;;;;;;;6.93;93.71;93116.93;1757093;80;21071;-79
2021/06/01 00:48:08;;;;;;;5.03;3.47;;;;;;;6.93;93.80;93117.52;1776317;80;21106;-79
2021/06/01 00:50:34;;;;;;;5.67;3.33;;;;;;;6.95;93.65;93109.20;1775443;80;21626;-79
2021/06/01 00:53:01;;;;;;;4.00;2.90;;;;;;;6.99;93.35;93111.92;1759309;80;21102;-79
2021/06/01 00:55:28;;;;;;;3.42;3.12;;;;;;;6.99;93.30;93110.56;1787486;80;21069;-79
2021/06/01 00:57:56;;;;;;;6.72;4.12;;;;;;;6.97;93.34;93108.26;1755680;80;21115;-78
2021/06/01 01:02:53;;;;;;;4.53;3.50;;;;;;;6.96;93.47;93107.30;1775816;80;21091;-78
2021/06/01 01:05:21;;;;;;;5.28;4.12;;;;;;;6.95;93.62;93105.73;1775357;80;21059;-78
2021/06/01 01:08:07;;;;;;;6.78;3.70;;;;;;;6.96;93.72;93104.59;1770739;81;21668;-78
2021/06/01 01:10:36;;;;;;;4.33;3.35;;;;;;;6.98;93.68;93108.45;1770780;81;21107;-79
2021/06/01 01:13:05;;;;;;;7.10;3.50;;;;;;;6.97;93.61;93098.02;1770625;80;21113;-78
2021/06/01 01:15:34;;;;;;;5.70;3.70;;;;;;;6.98;93.58;93103.63;1759924;81;21056;-78
2021/06/01 01:18:07;;;;;;;3.60;3.02;;;;;;;7.00;93.75;93109.44;1745858;80;21616;-80
2021/06/01 01:21:02;;;;;;;6.80;3.80;;;;;;;7.02;93.56;93106.53;1777884;80;21071;-78
2021/06/01 01:23:30;;;;;;;7.00;3.72;;;;;;;7.03;93.41;93106.75;1770104;78;21082;-77
2021/06/01 01:26:39;;;;;;;5.55;3.47;;;;;;;7.02;93.41;93101.70;1797495;78;21043;-78
2021/06/01 01:29:12;;;;;;;4.55;3.37;;;;;;;7.00;93.58;93095.34;1789897;80;21098;-79
2021/06/01 01:31:48;;;;;;;4.05;3.70;;;;;;;7.01;93.53;93098.23;1794924;80;21034;-77
2021/06/01 01:34:14;;;;;;;4.00;3.60;;;;;;;7.01;93.57;93096.88;1754032;80;21080;-77
2021/06/01 01:36:41;;;;;;;6.53;3.08;;;;;;;7.00;93.50;93101.33;1755478;80;21063;-77
2021/06/01 01:39:08;;;;;;;6.20;3.62;;;;;;;6.94;93.68;93098.78;1748816;80;21075;-76
2021/06/01 01:41:37;;;;;;;6.85;3.90;;;;;;;6.90;93.85;93093.36;1785625;79;21087;-78
2021/06/01 01:44:08;;;;;;;7.55;3.33;;;;;;;6.87;94.09;93096.81;1772759;80;20980;-78
2021/06/01 01:49:19;;;;;;;6.65;3.25;;;;;;;6.82;94.10;93094.48;1751988;80;21636;-77
2021/06/01 01:51:48;;;;;;;3.83;3.45;;;;;;;6.85;94.15;93098.36;1771834;81;21628;-79
2021/06/01 01:54:22;;;;;;;3.90;2.98;;;;;;;6.86;94.01;93095.27;1771404;80;21632;-78
2021/06/01 01:56:53;;;;;;;7.70;3.05;;;;;;;6.89;93.58;93094.52;1772431;80;21115;-76
2021/06/01 01:59:24;;;;;;;8.08;3.22;;;;;;;6.91;93.50;93094.90;1772731;80;21108;-79
2021/06/01 02:01:52;;;;;;;6.70;2.85;;;;;;;6.95;93.05;93098.39;1776650;80;21102;-77
2021/06/01 02:04:21;;;;;;;5.12;2.60;;;;;;;6.97;92.56;93100.15;1758750;80;21611;-79
2021/06/01 02:06:48;;;;;;;5.65;3.45;;;;;;;6.99;92.30;93093.77;1735797;82;21038;-79
2021/06/01 02:09:15;;;;;;;4.87;3.60;;;;;;;6.99;92.29;93101.11;1776853;80;21002;-77
2021/06/01 02:11:41;;;;;;;5.40;3.42;;;;;;;6.99;92.22;93097.83;1778736;79;21565;-78
2021/06/01 02:14:08;;;;;;;4.75;3.50;;;;;;;7.01;92.12;93093.41;1802724;79;21581;-78
2021/06/01 02:16:38;;;;;;;4.83;3.45;;;;;;;7.01;92.36;93091.47;1764896;79;21052;-77
2021/06/01 02:19:06;;;;;;;5.65;3.65;;;;;;;7.02;92.66;93092.24;1752513;81;21097;-76
2021/06/01 02:24:44;;;;;;;7.12;3.30;;;;;;;6.97;93.17;93084.52;1753956;80;21011;-78
2021/06/01 02:27:33;;;;;;;6.55;3.20;;;;;;;6.97;92.75;93089.92;1768125;79;21071;-76
2021/06/01 02:30:09;;;;;;;4.67;3.52;;;;;;;6.93;92.55;93085.84;1793271;78;21090;-76
2021/06/01 02:32:45;;;;;;;5.17;3.37;;;;;;;6.95;92.32;93080.81;1753663;78;21504;-78
2021/06/01 02:35:17;;;;;;;8.90;3.83;;;;;;;6.96;92.10;93083.74;1819592;78;21060;-80
2021/06/01 02:37:47;;;;;;;8.63;3.40;;;;;;;6.92;91.32;93090.27;1805981;78;21000;-78
2021/06/01 02:40:17;;;;;;;3.62;3.25;;;;;;;6.89;91.36;93081.00;1741575;81;21009;-78
2021/06/01 02:42:43;;;;;;;5.60;3.70;;;;;;;6.86;91.35;93081.76;1734749;81;21086;-78
2021/06/01 02:45:14;;;;;;;4.05;3.20;;;;;;;6.85;91.54;93086.97;1756172;80;21127;-77
2021/06/01 02:47:41;;;;;;;5.97;3.22;;;;;;;6.84;91.62;93079.23;1747974;81;21095;-77
2021/06/01 02:50:10;;;;;;;5.90;3.30;;;;;;;6.83;91.46;93084.44;1724880;82;21056;-79
2021/06/01 02:52:37;;;;;;;3.75;3.25;;;;;;;6.85;91.52;93083.50;1767439;80;21071;-77
2021/06/01 02:55:07;;;;;;;3.42;3.08;;;;;;;6.86;91.68;93078.28;1780740;80;21123;-77
2021/06/01 02:57:34;;;;;;;6.20;3.40;;;;;;;6.87;91.48;93082.53;1742587;82;21088;-77
2021/06/01 03:00:00;;;;;;;5.62;3.50;;;;;;;6.87;91.22;93082.53;1779288;78;21063;-79
2021/06/01 03:02:28;;;;;;;3.83;3.35;;;;;;;6.89;91.41;93082.94;1819381;78;21067;-79
2021/06/01 03:04:54;;;;;;;6.87;3.50;;;;;;;6.89;91.35;93085.05;1753113;81;21024;-76
2021/06/01 03:07:21;;;;;;;5.92;2.98;;;;;;;6.92;91.27;93084.86;1748976;82;21644;-76
2021/06/01 03:09:48;;;;;;;5.50;3.40;;;;;;;6.91;90.82;93082.73;1765969;79;21089;-78
2021/06/01 03:14:53;;;;;;;3.47;2.87;;;;;;;6.91;90.03;93084.08;1817774;78;21210;-76
2021/06/01 03:17:20;;;;;;;3.15;2.80;;;;;;;6.93;89.87;93083.72;1808536;79;21064;-79
2021/06/01 03:19:46;;;;;;;4.37;2.80;;;;;;;6.94;89.85;93083.33;1817673;78;21054;-77
2021/06/01 03:22:12;;;;;;;4.95;3.22;;;;;;;6.93;90.25;93083.14;1818468;78;21094;-79
2021/06/01 03:24:39;;;;;;;7.15;3.10;;;;;;;6.92;90.73;93075.39;1814117;78;21660;-79
2021/06/01 03:27:06;;;;;;;3.83;2.95;;;;;;;6.90;91.11;93081.77;1809991;78;21022;-78
2021/06/01 03:29:32;;;;;;;6.10;3.15;;;;;;;6.85;91.46;93073.45;1818867;78;21141;-78
2021/06/01 03:31:59;;;;;;;5.00;3.10;;;;;;;6.83;91.77;93079.03;1808324;78;21176;-77
2021/06/01 03:34:25;;;;;;;6.37;3.27;;;;;;;6.84;92.04;93077.30;1816451;78;21047;-80
2021/06/01 03:36:51;;;;;;;6.22;3.17;;;;;;;6.86;91.86;93077.70;1819062;78;21612;-78
2021/06/01 03:39:20;;;;;;;5.75;3.75;;;;;;;6.82;92.16;93074.21;1819624;78;21115;-80
2021/06/01 03:41:48;;;;;;;6.67;3.55;;;;;;;6.81;92.32;93071.32;1818997;78;20940;-77
2021/06/01 03:44:15;;;;;;;8.78;3.35;;;;;;;6.81;92.10;93078.08;1808157;79;21048;-79
2021/06/01 03:46:43;;;;;;;4.40;3.25;;;;;;;6.80;91.84;93077.86;1816345;78;21094;-77
2021/06/01 03:49:10;;;;;;;5.67;3.45;;;;;;;6.81;91.96;93076.72;1812645;78;21095;-76
2021/06/01 03:51:36;;;;;;;4.17;2.83;;;;;;;6.83;92.08;93075.75;1811810;78;21078;-77
2021/06/01 03:54:03;;;;;;;4.20;2.98;;;;;;;6.86;92.18;93069.59;1817360;78;21113;-76
2021/06/01 03:56:30;;;;;;;3.72;3.20;;;;;;;6.91;91.98;93079.27;1808221;79;21079;-77
2021/06/01 03:58:56;;;;;;;3.72;3.37;;;;;;;6.93;92.14;93078.31;1811916;78;21541;-77
2021/06/01 04:01:22;;;;;;;9.95;2.95;;;;;;;6.93;92.26;93081.02;1819183;78;21071;-77
2021/06/01 04:03:49;;;;;;;7.30;3.52;;;;;;;6.95;92.04;93084.10;1814683;78;21076;-78
2021/06/01 04:06:15;;;;;;;5.37;3.20;;;;;;;6.97;92.12;93073.70;1810923;78;21537;-76
2021/06/01 04:08:42;;;;;;;3.75;3.27;;;;;;;6.98;92.12;93086.05;1820102;78;21035;-76
2021/06/01 04:11:09;;;;;;;5.30;3.00;;;;;;;6.97;91.96;93079.87;1819471;78;21184;-76
2021/06/01 04:13:35;;;;;;;5.62;3.27;;;;;;;6.96;91.86;93075.63;1810349;78;21055;-77
2021/06/01 04:16:03;;;;;;;3.45;3.15;;;;;;;6.97;91.69;93078.52;1813851;78;21082;-78
2021/06/01 04:18:30;;;;;;;5.60;3.58;;;;;;;6.99;91.70;93081.61;1816721;78;21068;-77
2021/06/01 04:20:56;;;;;;;6.92;2.70;;;;;;;6.96;91.67;93074.28;1808075;78;21016;-77
2021/06/01 04:23:23;;;;;;;4.03;3.62;;;;;;;6.95;91.77;93081.40;1819166;78;21040;-75
2021/06/01 04:25:49;;;;;;;3.87;2.77;;;;;;;6.95;91.96;93083.52;1819265;78;21715;-77
2021/06/01 04:28:16;;;;;;;4.28;3.35;;;;;;;6.92;92.03;93082.95;1818255;78;21080;-78
2021/06/01 04:30:44;;;;;;;7.45;3.75;;;;;;;6.92;92.42;93086.20;1814394;78;21095;-77
2021/06/01 04:33:14;;;;;;;2.95;2.60;;;;;;;6.88;92.60;93087.54;1808009;78;21070;-76
2021/06/01 04:35:40;;;;;;;7.03;3.00;;;;;;;6.88;92.47;93088.13;1818900;78;21106;-76
2021/06/01 04:38:07;;;;;;;5.42;3.00;;;;;;;6.85;92.87;93084.27;1807617;78;21095;-77
2021/06/01 04:40:34;;;;;;;2.72;2.52;;;;;;;6.87;93.15;93079.82;1814049;78;21059;-78
2021/06/01 04:43:00;;;;;;;2.75;2.35;;;;;;;6.88;92.90;93086.19;1817939;78;21137;-77
2021/06/01 04:45:27;;;;;;;6.75;3.90;;;;;;;6.89;93.24;93090.46;1816919;78;21031;-78
2021/06/01 04:47:53;;;;;;;4.28;2.75;;;;;;;6.92;93.44;93088.91;1808288;79;21591;-76
2021/06/01 04:50:22;;;;;;;4.87;2.98;;;;;;;6.94;93.65;93083.91;1819034;78;21059;-78
2021/06/01 04:52:48;;;;;;;6.25;3.92;;;;;;;6.94;93.66;93081.98;1819972;78;20915;-77
2021/06/01 04:55:15;;;;;;;6.12;3.72;;;;;;;6.97;93.80;93082.58;1814302;78;21536;-78
2021/06/01 04:57:42;;;;;;;4.25;2.92;;;;;;;7.02;93.55;93090.89;1812332;78;21058;-78
2021/06/01 05:00:09;;;;;;;5.42;3.22;;;;;;;7.02;93.61;93080.85;1819599;78;21134;-76
2021/06/01 05:02:36;;;;;;;5.40;3.20;;;;;;;7.02;93.51;93090.31;1808594;79;21031;-78
2021/06/01 05:05:05;;;;;;;4.97;3.40;;;;;;;7.02;93.25;93090.31;1816280;78;21023;-78
2021/06/01 05:07:31;;;;;;;5.10;3.08;;;;;;;7.06;93.46;93084.34;1812746;78;21008;-78
2021/06/01 05:10:01;;;;;;;3.92;3.50;;;;;;;7.09;93.36;93090.16;1811156;78;21047;-78
2021/06/01 05:12:29;;;;;;;5.85;3.25;;;;;;;7.09;93.49;93086.88;1816995;78;21477;-77
2021/06/01 05:14:56;;;;;;;8.13;4.15;;;;;;;7.10;93.48;93091.11;1808197;79;20964;-78
2021/06/01 05:17:24;;;;;;;6.40;2.75;;;;;;;7.13;93.42;93093.64;1817089;78;21632;-78
2021/06/01 05:19:54;;;;;;;4.70;3.00;;;;;;;7.16;93.45;93091.53;1810987;78;21091;-76
2021/06/01 05:22:20;;;;;;;4.15;3.75;;;;;;;7.15;93.15;93096.75;1812897;78;21115;-77
2021/06/01 05:24:47;;;;;;;4.08;3.47;;;;;;;7.14;93.21;93094.60;1816530;78;21581;-77
2021/06/01 05:27:13;;;;;;;;;;;;;;;;;;;;;
2021/06/01 05:29:45;;;;;;;6.00;3.40;;;;;;;7.17;93.76;93096.55;1727540;82;21544;-77
2021/06/01 05:35:02;;;;;;;4.83;3.37;;;;;;;7.21;94.13;93101.97;1802462;78;21039;-77
2021/06/01 05:37:28;;;;;;;5.42;3.40;;;;;;;7.19;94.28;93098.31;1776018;79;21063;-76
2021/06/01 05:39:55;;;;;;;6.30;3.00;;;;;;;7.21;94.06;93111.44;1749261;78;21118;-76
2021/06/01 05:42:23;;;;;;;6.12;2.92;;;;;;;7.24;94.07;93112.03;1818577;78;21078;-78
2021/06/01 05:44:50;;;;;;;7.42;3.45;;;;;;;7.26;94.10;93108.38;1832268;78;21418;-77
2021/06/01 05:47:17;;;;;;;5.25;3.25;;;;;;;7.26;94.10;93111.09;1810626;78;21038;-78
2021/06/01 05:49:44;;;;;;;7.17;5.37;;;;;;;7.28;94.23;93108.18;1772102;80;21692;-78
2021/06/01 05:52:10;;;;;;;6.00;3.87;;;;;;;7.28;93.82;93105.48;1793813;78;21097;-77
2021/06/01 05:54:37;;;;;;;6.83;3.70;;;;;;;7.28;93.79;93106.83;1820647;78;21071;-77
2021/06/01 05:57:04;;;;;;;7.20;4.10;;;;;;;7.32;93.86;93116.89;1790743;78;21090;-78
2021/06/01 05:59:31;;;;;;;9.58;3.50;;;;;;;7.33;93.67;93115.14;1761283;80;21039;-77
2021/06/01 06:01:57;;;;;;;5.75;3.67;;;;;;;7.34;93.68;93106.48;1721964;83;21132;-76
2021/06/01 06:04:23;;;;;;;7.45;3.77;;;;;;;7.34;93.50;93112.66;1717203;83;21091;-77
2021/06/01 06:06:50;;;;;;;9.08;4.22;;;;;;;7.38;93.49;93111.31;1743791;79;21699;-77
2021/06/01 06:09:17;;;;;;;4.15;3.15;;;;;;;7.38;93.43;93111.31;1745603;81;21106;-78
2021/06/01 06:11:43;;;;;;;4.25;3.50;;;;;;;7.41;93.70;93119.45;1771396;79;21083;-79
2021/06/01 06:14:09;;;;;;;5.22;3.50;;;;;;;7.42;93.44;93114.22;1709315;83;21716;-77
2021/06/01 06:16:43;;;;;;;6.33;5.60;;;;;;;7.42;93.06;93112.10;1713316;82;21107;-77
2021/06/01 06:19:10;;;;;;;8.43;4.10;;;;;;;7.39;93.08;93112.28;1740474;81;21508;-76
2021/06/01 06:21:36;;;;;;;5.62;3.87;;;;;;;7.35;92.90;93114.78;1741842;80;21082;-78
2021/06/01 06:24:04;;;;;;;4.67;3.77;;;;;;;7.32;92.86;93115.53;1785962;80;21114;-78
2021/06/01 06:26:31;;;;;;;4.72;3.42;;;;;;;7.30;93.04;93112.64;1777143;80;21095;-77
2021/06/01 06:28:57;;;;;;;6.22;4.05;;;;;;;7.34;93.21;93115.94;1748343;80;21242;-77
2021/06/01 06:31:25;;;;;;;5.83;4.15;;;;;;;7.36;93.33;93113.03;1716998;83;21160;-76
2021/06/01 06:33:52;;;;;;;6.53;3.90;;;;;;;7.40;93.34;93112.47;1716183;80;21061;-78
2021/06/01 06:36:19;;;;;;;8.08;4.03;;;;;;;7.46;93.76;93114.23;1777515;80;21120;-76
2021/06/01 06:38:47;;;;;;;6.12;3.75;;;;;;;7.53;93.74;93114.26;1718267;80;21120;-77
2021/06/01 06:41:15;;;;;;;5.05;4.42;;;;;;;7.61;93.49;93113.70;1710149;83;21102;-77
2021/06/01 06:43:53;;;;;;;4.70;3.75;;;;;;;7.66;92.88;93116.78;1711636;83;21446;-76
2021/06/01 06:46:24;;;;;;;;;;;;;;;7.71;92.92;93117.78;1712808;83;21446;-77
2021/06/01 06:48:46;;;;;;;5.95;3.62;;;;;;;7.74;91.89;93118.34;1739740;81;20265;-77
2021/06/01 06:51:13;;;;;;;5.42;3.47;;;;;;;7.71;91.65;93115.62;1711365;83;22169;-76
2021/06/01 06:53:55;;;;;;;6.25;2.98;;;;;;;7.70;91.59;93110.03;1707396;82;21107;-77
2021/06/01 06:56:23;;;;;;;5.40;3.20;;;;;;;7.70;91.84;93111.38;1715304;80;21067;-77
2021/06/01 06:58:52;;;;;;;10.28;6.33;;;;;;;7.67;91.49;93115.65;1780375;79;21110;-77
2021/06/01 07:01:19;;;;;;;8.18;3.92;;;;;;;7.64;90.71;93117.77;1787930;80;21064;-77
2021/06/01 07:03:45;;;;;;;5.00;3.50;;;;;;;7.64;90.88;93121.05;1785222;80;21620;-77
2021/06/01 07:06:12;;;;;;;3.87;3.47;;;;;;;7.65;91.22;93122.59;1794874;79;21190;-78
2021/06/01 07:08:38;;;;;;;4.85;3.42;;;;;;;7.67;91.36;93122.97;1756280;80;21107;-77
2021/06/01 07:11:05;;;;;;;4.83;3.95;;;;;;;7.67;90.84;93128.38;1763136;79;21079;-78
2021/06/01 07:13:51;;;;;;;4.22;3.42;;;;;;;7.71;91.39;93126.45;1801033;78;21110;-77
2021/06/01 07:16:17;;;;;;;6.42;4.83;;;;;;;7.73;91.28;93123.57;1778134;80;21552;-79
2021/06/01 07:18:44;;;;;;;6.92;4.03;;;;;;;7.73;90.30;93126.28;1785652;80;21756;-77
2021/06/01 07:21:11;;;;;;;6.80;4.67;;;;;;;7.71;88.67;93129.16;1775274;80;21125;-78
2021/06/01 07:23:38;;;;;;;5.83;5.12;;;;;;;7.66;89.04;93128.97;1736353;80;21100;-78
2021/06/01 07:26:05;;;;;;;4.42;4.00;;;;;;;7.67;89.89;93129.18;1713058;83;21093;-76
2021/06/01 07:28:33;;;;;;;5.42;4.20;;;;;;;7.72;89.94;93130.15;1712726;83;21060;-77
2021/06/01 07:33:27;;;;;;;6.83;4.08;;;;;;;7.79;90.49;93132.88;1780731;80;21077;-77
2021/06/01 07:35:54;;;;;;;5.08;3.67;;;;;;;7.87;89.85;93132.89;1762856;80;21579;-77
2021/06/01 07:38:20;;;;;;;4.10;3.72;;;;;;;7.93;89.72;93128.63;1788666;79;21501;-76
2021/06/01 07:40:47;;;;;;;6.28;4.45;;;;;;;8.01;89.40;93132.88;1740009;80;21828;-77
2021/06/01 07:43:13;;;;;;;7.22;3.83;;;;;;;8.07;89.42;93134.06;1714290;83;21096;-76
2021/06/01 07:45:41;;;;;;;7.30;4.25;;;;;;;8.12;89.87;93132.31;1686232;83;43999;-77
2021/06/01 07:48:09;;;;;;;5.30;4.00;;;;;;;8.16;90.25;93126.34;1766855;79;21058;-77
2021/06/01 07:50:36;;;;;;;7.17;3.83;;;;;;;8.23;89.31;93130.38;1752208;80;21072;-76
2021/06/01 07:53:02;;;;;;;5.95;4.05;;;;;;;8.29;89.01;93130.79;1739488;78;21099;-78
2021/06/01 07:55:29;;;;;;;4.95;4.30;;;;;;;8.34;89.15;93133.09;1757112;81;21326;-78
2021/06/01 07:57:55;;;;;;;7.25;4.78;;;;;;;8.36;88.36;93129.44;1779095;80;21621;-80
2021/06/01 08:00:22;;;;;;;7.28;5.55;;;;;;;8.39;87.97;93131.41;1775117;80;21317;-80
2021/06/01 08:02:50;;;;;;;7.17;5.33;;;;;;;8.41;88.37;93134.48;1789433;79;21071;-78
2021/06/01 08:05:18;;;;;;;7.65;4.85;;;;;;;8.43;88.42;93137.59;1798917;79;21064;-78
2021/06/01 08:07:46;;;;;;;6.80;4.87;;;;;;;8.45;88.53;93142.03;1795648;79;21064;-78
2021/06/01 08:10:15;;;;;;;5.28;4.40;;;;;;;8.48;88.87;93134.48;1761902;81;21057;-79
2021/06/01 08:12:42;;;;;;;6.17;4.08;;;;;;;8.53;88.81;93133.31;1777985;80;21137;-78
2021/06/01 08:15:09;;;;;;;6.15;3.87;;;;;;;8.58;89.13;93132.94;1813185;78;21023;-78
2021/06/01 08:17:36;;;;;;;2.50;2.30;;;;;;;8.57;89.12;93142.21;1823301;78;21083;-80
2021/06/01 08:20:55;;;;;;;4.37;2.58;;;;;;;8.52;87.18;93152.09;1823545;78;21046;-77
2021/06/01 08:22:35;;;;;;;4.62;2.47;;;;;;;8.48;88.14;93148.03;1810725;78;20957;-77
2021/06/01 08:25:02;;;;;;;2.83;2.30;;;;;;;8.51;88.38;93143.78;1819505;78;21063;-79
2021/06/01 08:27:30;;;;;;;3.42;3.12;;;;;;;8.58;88.89;93153.27;1815674;78;21090;-77
2021/06/01 08:29:57;;;;;;;2.27;2.08;;;;;;;8.64;89.01;93147.63;1815143;79;21101;-77
2021/06/01 08:32:25;;;;;;;2.10;2.00;;;;;;;8.68;88.35;93151.11;1810580;79;21390;-77
2021/06/01 08:34:52;;;;;;;2.35;2.15;;;;;;;8.70;87.93;93150.73;1800828;79;21664;-76
2021/06/01 08:37:19;;;;;;;4.42;4.03;;;;;;;8.74;87.73;93152.85;1794834;80;21135;-76
2021/06/01 08:39:45;;;;;;;3.55;3.25;;;;;;;8.79;88.44;93151.09;1815313;79;21687;-76
2021/06/01 08:42:12;;;;;;;3.90;3.60;;;;;;;8.86;89.34;93152.44;1815974;78;21022;-75
2021/06/01 08:44:38;;;;;;;4.10;3.27;;;;;;;8.89;89.13;93153.02;1788006;79;21680;-77
2021/06/01 08:47:05;;;;;;;4.40;4.00;;;;;;;8.93;89.20;93157.08;1765269;80;21076;-78
2021/06/01 08:49:33;;;;;;;3.60;3.30;;;;;;;8.91;88.42;93156.69;1780656;79;21063;-76
2021/06/01 08:51:59;;;;;;;3.37;3.10;;;;;;;8.96;89.37;93150.30;1803116;79;21094;-76
2021/06/01 08:54:27;;;;;;;5.37;3.47;;;;;;;9.06;89.32;93154.72;1768043;79;21103;-76
2021/06/01 08:56:54;;;;;;;8.80;3.90;;;;;;;9.10;87.33;93150.05;1791918;79;21406;-76
2021/06/01 08:59:22;;;;;;;4.58;3.60;;;;;;;9.12;87.41;93155.30;1815063;79;20901;-76
2021/06/01 09:01:48;;;;;;;6.75;3.70;;;;;;;9.12;86.63;93153.16;1813974;79;21553;-76
2021/06/01 09:04:14;;;;;;;3.77;2.52;;;;;;;9.13;86.73;93165.55;1804415;79;21117;-76
2021/06/01 09:06:47;;;;;;;3.37;2.65;;;;;;;9.09;84.48;93162.08;1784370;79;21047;-77
2021/06/01 09:22:44;;;;;;;6.08;3.90;;;;;;;8.72;86.66;93159.23;1717631;82;21582;-75
2021/06/01 09:25:25;;;;;;;20.75;12.90;;;;;;;8.73;88.05;93159.45;1778113;80;21079;-78
2021/06/01 09:27:53;;;;;;;21.75;9.48;;;;;;;8.72;86.56;93163.30;1767449;80;21601;-77
2021/06/01 09:30:51;;;;;;;8.93;6.10;;;;;;;8.72;87.07;93167.37;1770677;80;21063;-77
2021/06/01 09:33:27;;;;;;;8.55;4.90;;;;;;;8.77;87.90;93168.34;1767915;80;21079;-81
2021/06/01 09:36:06;;;;;;;3.65;3.30;;;;;;;8.77;85.29;93168.94;1752888;81;21076;-77
2021/06/01 09:38:45;;;;;;;21.93;9.38;;;;;;;8.70;85.89;93165.64;1754026;80;21031;-77
2021/06/01 09:41:19;;;;;;;15.05;5.72;;;;;;;8.65;84.23;93160.59;1811388;78;21147;-78
2021/06/01 09:46:33;;;;;;;7.97;5.15;;;;;;;8.58;84.65;93172.82;1767744;81;21083;-77
2021/06/01 09:49:18;;;;;;;;;;;;;;;8.58;84.06;93167.40;1772886;79;21068;-77
2021/06/01 09:51:57;;;;;;;35.35;13.62;;;;;;;8.48;84.53;93173.77;1750813;79;20256;-77
2021/06/01 09:54:46;;;;;;;6.28;4.37;;;;;;;8.45;85.32;93165.06;1725875;81;21648;-78
2021/06/01 09:57:24;;;;;;;9.38;4.40;;;;;;;8.49;85.82;93165.06;1720064;83;21060;-76
2021/06/01 10:00:17;;;;;;;8.33;5.75;;;;;;;8.53;86.23;93171.84;1751109;78;21390;-76
2021/06/01 10:02:58;;;;;;;14.28;6.72;;;;;;;8.54;86.58;93170.66;1821307;78;21051;-77
2021/06/01 10:05:30;;;;;;;5.53;4.83;;;;;;;8.55;85.95;93172.23;1819105;78;20968;-76
2021/06/01 10:07:57;;;;;;;14.47;7.37;;;;;;;8.55;85.92;93173.00;1779919;80;21020;-76
2021/06/01 10:10:31;;;;;;;17.98;7.83;;;;;;;8.55;85.38;93166.81;1749189;82;21524;-76
2021/06/01 10:13:04;;;;;;;4.92;3.90;;;;;;;8.55;85.91;93174.36;1778562;80;21063;-76
2021/06/01 10:15:31;;;;;;;7.42;4.30;;;;;;;8.60;85.90;93167.19;1778320;79;21067;-74
2021/06/01 10:17:58;;;;;;;6.90;3.37;;;;;;;8.67;85.46;93171.84;1755761;81;21039;-76
2021/06/01 10:20:26;;;;;;;14.58;6.47;;;;;;;8.73;85.51;93173.00;1764621;79;21276;-75
2021/06/01 10:22:53;;;;;;;7.72;4.15;;;;;;;8.81;85.77;93177.25;1816550;79;21719;-77
2021/06/01 10:25:19;;;;;;;6.15;3.72;;;;;;;8.89;86.88;93176.07;1821283;78;21090;-76
2021/06/01 10:27:47;;;;;;;10.20;5.33;;;;;;;8.98;86.91;93172.36;1806900;78;21035;-75
2021/06/01 10:30:15;;;;;;;9.43;3.70;;;;;;;9.09;85.84;93171.58;1759295;78;21080;-76
2021/06/01 10:32:44;;;;;;;5.28;3.40;;;;;;;9.15;83.48;93171.37;1757579;80;21091;-76
2021/06/01 10:35:13;;;;;;;6.05;3.33;;;;;;;9.21;83.56;93165.72;1757555;80;21648;-76
2021/06/01 10:52:03;;;;;;;7.67;4.62;;;;;;;9.38;81.03;93173.05;1742085;81;21077;-77
2021/06/01 10:54:47;;;;;;;5.87;3.30;;;;;;;9.41;80.81;93181.77;1756146;80;21103;-77
2021/06/01 10:57:16;;;;;;;2.63;2.40;;;;;;;9.43;81.67;93178.05;1758816;80;21086;-76
2021/06/01 11:00:10;;;;;;;2.45;2.30;;;;;;;9.46;82.06;93175.91;1741940;81;21078;-77
2021/06/01 11:02:21;;;;;;;5.08;2.55;;;;;;;9.49;82.02;93169.70;1753763;80;21113;-76
2021/06/01 11:05:10;;;;;;;5.80;3.52;;;;;;;9.56;81.48;93166.20;1771543;80;21381;-77
2021/06/01 11:07:57;;;;;;;4.20;3.25;;;;;;;9.61;79.54;93156.86;1740350;80;21140;-78
2021/06/01 11:10:46;;;;;;;12.73;7.00;;;;;;;9.62;78.42;93148.91;1746264;81;21131;-77
2021/06/01 11:13:26;;;;;;;5.75;3.30;;;;;;;9.61;79.46;93148.72;1750949;82;21086;-77
2021/06/01 11:15:57;;;;;;;10.45;2.90;;;;;;;9.65;78.17;93145.41;1749461;81;21700;-77
2021/06/01 11:18:42;;;;;;;4.70;2.20;;;;;;;9.60;76.71;93145.23;1763526;78;21767;-76
2021/06/01 11:21:34;;;;;;;4.22;3.75;;;;;;;9.58;76.80;93157.06;1777301;80;21089;-77
2021/06/01 11:33:15;;;;;;;5.87;3.75;;;;;;;9.38;76.88;93170.33;1734375;80;21063;-77
2021/06/01 11:35:41;;;;;;;13.25;7.83;;;;;;;9.32;77.03;93170.53;1749989;80;21023;-78
2021/06/01 11:40:51;;;;;;;7.42;4.40;;;;;;;9.25;77.39;93177.34;1709691;80;21106;-79
2021/06/01 11:43:09;;;;;;;5.75;3.30;;;;;;;9.24;77.72;93186.65;1728726;80;21092;-78
2021/06/01 11:46:25;;;;;;;6.12;2.95;;;;;;;9.22;77.18;93192.48;1747848;80;21153;-80
2021/06/01 11:51:28;;;;;;;2.37;2.17;;;;;;;9.09;77.11;93192.69;1773994;79;21083;-77
2021/06/01 11:54:08;;;;;;;4.35;2.27;;;;;;;9.05;76.93;93188.44;1785151;80;21145;-78
2021/06/01 12:04:58;;;;;;;5.35;3.05;;;;;;;8.98;78.75;93184.56;1770426;79;21651;-77
2021/06/01 12:19:04;;;;;;;2.85;2.20;;;;;;;8.95;80.72;93175.88;1754068;81;21091;-79
2021/06/01 12:21:43;;;;;;;3.08;1.90;;;;;;;8.93;81.15;93179.55;1749743;81;21108;-76
2021/06/01 12:24:20;;;;;;;2.30;1.80;;;;;;;8.92;81.42;93174.53;1746897;82;21118;-79
2021/06/01 12:32:22;;;;;;;3.35;1.92;;;;;;;8.86;81.80;93173.36;1742586;79;21053;-79
2021/06/01 13:12:40;;;;;;;3.15;2.85;;;;;;;9.86;78.59;93164.90;1748720;82;21102;-78
2021/06/01 13:40:01;;;;;;;2.92;2.60;;;;;;;9.66;74.66;93168.66;1809515;79;21182;-78
2021/06/01 13:47:56;;;;;;;4.53;2.92;;;;;;;9.78;78.09;93183.17;1742396;82;21055;-80
2021/06/01 13:50:26;;;;;;;7.37;3.50;;;;;;;9.85;77.75;93183.70;1802015;78;21061;-78
2021/06/01 13:53:01;;;;;;;5.05;3.58;;;;;;;9.89;78.37;93187.97;1777104;78;21071;-79
2021/06/01 13:55:27;;;;;;;6.22;3.90;;;;;;;9.91;77.29;93180.18;1750580;80;21094;-79
2021/06/01 14:19:30;;;;;;;4.70;2.77;;;;;;;9.93;77.37;93175.73;1722438;83;21629;-77
2021/06/01 14:30:06;;;;;;;3.55;3.20;;;;;;;9.92;77.21;93179.00;1718030;81;21098;-81
2021/06/01 14:38:06;;;;;;;3.70;3.10;;;;;;;9.93;77.13;93171.66;1812602;79;21066;-81
2021/06/01 15:49:39;;;;;;;;;;;;;;;9.42;70.68;93192.03;1828262;78;21085;-78
2021/06/01 16:11:36;;;;;;;;;;;;;;;9.30;70.62;93206.80;1739974;80;21071;-79
2021/06/01 16:14:14;;;;;;;5.10;2.02;;;;;;;9.33;71.75;93201.95;1743294;81;20266;-77
2021/06/01 17:05:57;;;;;;;5.95;3.55;;;;;;;9.09;69.57;93230.66;1787222;80;21037;-82
2021/06/01 17:08:40;;;;;;;4.53;2.37;;;;;;;9.07;69.59;93231.64;1818008;77;21003;-83
2021/06/01 17:11:04;;;;;;;2.25;2.00;;;;;;;9.05;69.41;93232.61;1845932;77;21637;-83
2021/06/01 17:13:45;;;;;;;2.05;1.90;;;;;;;9.05;72.59;93233.96;1815429;79;21058;-82
2021/06/01 17:16:23;;;;;;;1.70;1.60;;;;;;;8.96;73.34;93233.01;1820535;78;21610;-83
2021/06/01 17:21:49;;;;;;;2.47;2.20;;;;;;;8.75;75.94;93240.56;1720483;81;21089;-85
2021/06/01 17:34:46;;;;;;;4.00;3.17;;;;;;;8.69;78.50;93242.13;1727841;80;21042;-83
2021/06/01 17:37:08;;;;;;;5.35;3.05;;;;;;;8.66;79.05;93251.03;1746629;79;21611;-80